Time;durP1;ratioP1;P1;durP2;ratioP2;P2;SDS_P1;SDS_P2;PMS_P1;PMS_P2;Temp;Humidity;BMP_temperature;BMP_pressure;BME280_temperature;BME280_humidity;BME280_pressure;Samples;Min_cycle;Max_cycle;Signal;HPM_P1;HPM_P2
2022/01/07 00:02:03;;;;;;;15.27;5.12;;;;;;;-5.18;100.00;99079.50;4368559;32;20036;-74
2022/01/07 00:04:32;;;;;;;9.80;3.85;;;;;;;-5.17;100.00;99082.94;4370361;32;21067;-74
2022/01/07 00:06:58;;;;;;;18.17;5.40;;;;;;;-5.44;100.00;99044.44;4384410;32;20031;-74
2022/01/07 00:09:25;;;;;;;23.27;5.20;;;;;;;-5.19;100.00;99090.97;4383812;32;20403;-75
2022/01/07 00:11:51;;;;;;;16.87;4.82;;;;;;;-5.29;100.00;99069.22;4384050;32;20061;-74
2022/01/07 00:14:18;;;;;;;19.60;4.78;;;;;;;-5.70;100.00;99021.50;4385891;32;20488;-75
2022/01/07 00:16:45;;;;;;;20.58;5.00;;;;;;;-5.22;100.00;99091.25;4384588;32;20043;-73
2022/01/07 00:19:19;;;;;;;10.65;4.72;;;;;;;-5.27;100.00;99077.75;4384943;32;20069;-75
2022/01/07 00:21:46;;;;;;;13.57;5.25;;;;;;;-5.23;100.00;99092.25;4368830;32;20420;-76
2022/01/07 00:24:12;;;;;;;18.83;5.95;;;;;;;-5.27;100.00;99087.44;4375304;32;20372;-75
2022/01/07 00:26:39;;;;;;;13.82;4.93;;;;;;;-5.54;100.00;99055.78;4381481;32;20035;-75
2022/01/07 00:29:05;;;;;;;9.20;4.35;;;;;;;-5.23;100.00;99094.87;4377439;32;20044;-75
2022/01/07 00:31:32;;;;;;;17.70;4.50;;;;;;;-5.33;100.00;99088.84;4368817;32;20071;-74
2022/01/07 00:33:59;;;;;;;11.07;3.78;;;;;;;-5.24;100.00;99113.41;4382796;32;20035;-75
2022/01/07 00:36:26;;;;;;;15.98;5.40;;;;;;;-5.53;100.00;99060.06;4377916;32;20068;-75
2022/01/07 00:38:53;;;;;;;16.77;4.62;;;;;;;-5.28;100.00;99099.75;4383993;32;20044;-75
2022/01/07 00:41:20;;;;;;;16.50;4.62;;;;;;;-5.27;100.00;99097.94;4383944;32;20083;-74
2022/01/07 00:43:48;;;;;;;17.23;4.60;;;;;;;-5.42;100.00;99084.50;4383092;32;20039;-75
2022/01/07 00:46:14;;;;;;;22.42;4.70;;;;;;;-5.54;100.00;99066.28;4368210;32;20090;-76
2022/01/07 00:48:41;;;;;;;13.43;3.87;;;;;;;-5.59;100.00;99068.53;4369774;32;20497;-75
2022/01/07 00:51:09;;;;;;;11.93;3.87;;;;;;;-5.36;100.00;99105.72;4370108;32;20070;-74
2022/01/07 00:53:35;;;;;;;15.23;4.53;;;;;;;-5.58;100.00;99064.94;4368591;32;20032;-74
2022/01/07 00:56:02;;;;;;;18.73;5.15;;;;;;;-5.35;100.00;99106.53;4369160;32;20035;-74
2022/01/07 00:58:29;;;;;;;15.32;4.40;;;;;;;-5.63;100.00;99059.31;4367169;32;20031;-75
2022/01/07 01:00:56;;;;;;;11.20;4.32;;;;;;;-5.33;100.00;99107.22;4375525;32;20047;-74
2022/01/07 01:03:22;;;;;;;15.20;4.35;;;;;;;-5.69;100.00;99058.06;4385167;32;20040;-74
2022/01/07 01:05:51;;;;;;;15.82;4.37;;;;;;;-5.70;100.00;99058.22;4371197;32;20035;-74
2022/01/07 01:08:17;;;;;;;19.08;5.00;;;;;;;-5.39;100.00;99126.16;4384823;32;20040;-77
2022/01/07 01:10:44;;;;;;;13.07;4.35;;;;;;;-5.72;100.00;99062.78;4383295;32;20035;-74
2022/01/07 01:13:12;;;;;;;16.55;5.68;;;;;;;-5.43;100.00;99103.81;4383315;32;20068;-75
2022/01/07 01:15:38;;;;;;;12.00;3.83;;;;;;;-5.34;100.00;99108.19;4378251;32;20557;-74
2022/01/07 01:18:12;;;;;;;17.50;4.07;;;;;;;-5.31;100.00;99108.72;4383181;32;20085;-75
2022/01/07 01:20:38;;;;;;;9.35;4.00;;;;;;;-5.51;100.00;99071.25;4377750;32;20039;-74
2022/01/07 01:23:05;;;;;;;10.80;4.20;;;;;;;-5.63;100.00;99067.19;4369757;32;20043;-74
2022/01/07 01:25:31;;;;;;;8.95;5.32;;;;;;;-5.63;100.00;99061.94;4378519;32;20034;-74
2022/01/07 01:27:58;;;;;;;16.95;5.32;;;;;;;-5.68;100.00;99070.22;4384861;32;20192;-74
2022/01/07 01:30:27;;;;;;;17.50;5.45;;;;;;;-5.69;100.00;99054.63;4381454;32;20078;-76
2022/01/07 01:32:54;;;;;;;12.75;4.53;;;;;;;-5.70;100.00;99071.34;4384453;32;20047;-74
2022/01/07 01:35:21;;;;;;;15.02;4.28;;;;;;;-5.77;100.00;99068.47;4384673;32;20026;-74
2022/01/07 01:37:49;;;;;;;18.73;5.35;;;;;;;-5.46;100.00;99110.19;4384473;32;20024;-74
2022/01/07 01:40:18;;;;;;;14.98;5.37;;;;;;;-5.49;100.00;99095.56;4370252;32;20322;-76
2022/01/07 01:42:46;;;;;;;25.70;6.00;;;;;;;-5.47;100.00;99103.28;4371246;32;20174;-74
2022/01/07 01:45:16;;;;;;;10.50;4.07;;;;;;;-5.45;100.00;99116.28;4372479;32;20043;-76
2022/01/07 01:47:43;;;;;;;27.30;5.75;;;;;;;-5.58;100.00;99096.44;4385282;32;20058;-74
2022/01/07 01:50:11;;;;;;;15.65;4.78;;;;;;;-5.53;100.00;99094.19;4387490;32;20338;-76
2022/01/07 01:52:43;;;;;;;23.73;5.68;;;;;;;-5.85;100.00;99048.19;4372419;32;20024;-75
2022/01/07 01:55:10;;;;;;;21.83;5.07;;;;;;;-5.77;100.00;99054.53;4387854;32;20383;-75
2022/01/07 01:57:36;;;;;;;24.55;7.12;;;;;;;-5.74;100.00;99064.75;4387353;32;20065;-75
2022/01/07 02:00:06;;;;;;;45.12;12.48;;;;;;;-5.55;100.00;99105.78;4373078;32;20028;-76
2022/01/07 02:02:39;;;;;;;16.12;5.45;;;;;;;-5.55;100.00;99104.00;4385501;32;20087;-75
2022/01/07 02:05:06;;;;;;;14.80;6.60;;;;;;;-5.59;100.00;99101.81;4387366;32;20031;-75
2022/01/07 02:07:35;;;;;;;14.35;6.05;;;;;;;-5.55;100.00;99111.03;4386101;32;20023;-74
2022/01/07 02:10:07;;;;;;;14.87;5.32;;;;;;;-5.81;100.00;99074.97;4371358;32;20038;-76
2022/01/07 02:12:34;;;;;;;14.50;4.82;;;;;;;-5.60;100.00;99111.50;4386425;32;20051;-75
2022/01/07 02:15:00;;;;;;;21.50;6.40;;;;;;;-5.86;100.00;99067.53;4385998;32;20036;-74
2022/01/07 02:17:27;;;;;;;18.87;6.90;;;;;;;-5.90;100.00;99066.16;4386385;32;20056;-74
2022/01/07 02:19:55;;;;;;;22.60;5.90;;;;;;;-5.98;100.00;99053.00;4386385;32;20429;-74
2022/01/07 02:22:25;;;;;;;15.35;5.32;;;;;;;-5.67;100.00;99103.34;4384247;32;20056;-75
2022/01/07 02:24:53;;;;;;;13.27;5.75;;;;;;;-5.65;100.00;99105.84;4385218;32;20053;-74
2022/01/07 02:27:20;;;;;;;21.08;6.57;;;;;;;-5.66;100.00;99112.06;4386756;32;20385;-74
2022/01/07 02:29:50;;;;;;;22.20;5.55;;;;;;;-5.71;100.00;99109.87;4385569;32;20039;-74
2022/01/07 02:32:17;;;;;;;19.20;6.50;;;;;;;-5.68;100.00;99106.12;4381602;32;20200;-77
2022/01/07 02:34:45;;;;;;;12.90;5.20;;;;;;;-5.98;100.00;99068.72;4386985;32;20800;-75
2022/01/07 02:37:13;;;;;;;20.23;6.18;;;;;;;-5.74;100.00;99114.59;4386545;32;20027;-75
2022/01/07 02:39:40;;;;;;;17.83;5.90;;;;;;;-5.80;100.00;99107.28;4384416;32;20421;-74
2022/01/07 02:42:08;;;;;;;13.98;6.62;;;;;;;-6.64;100.00;98957.69;4370408;32;20061;-75
2022/01/07 02:44:34;;;;;;;14.07;5.32;;;;;;;-6.03;100.00;99066.53;4380352;32;20330;-75
2022/01/07 02:47:01;;;;;;;19.42;5.70;;;;;;;-5.70;100.00;99102.81;4371763;32;20061;-75
2022/01/07 02:49:28;;;;;;;23.27;6.07;;;;;;;-5.70;100.00;99103.63;4385271;32;20053;-75
2022/01/07 02:51:55;;;;;;;18.08;6.45;;;;;;;-5.81;100.00;99090.69;4385192;32;20231;-76
2022/01/07 02:54:21;;;;;;;26.12;5.47;;;;;;;-5.76;100.00;99104.22;4386045;32;20182;-75
2022/01/07 02:56:48;;;;;;;15.00;4.95;;;;;;;-6.04;100.00;99064.84;4385134;32;20065;-75
2022/01/07 02:59:15;;;;;;;13.13;5.37;;;;;;;-6.30;100.00;99027.97;4373069;32;20049;-74
2022/01/07 03:01:41;;;;;;;19.10;5.30;;;;;;;-5.85;100.00;99092.78;4371934;32;20047;-74
2022/01/07 03:04:08;;;;;;;10.13;5.15;;;;;;;-5.77;100.00;99112.25;4383155;32;20027;-75
2022/01/07 03:06:35;;;;;;;16.75;5.20;;;;;;;-6.14;100.00;99055.34;4385948;32;20104;-74
2022/01/07 03:09:04;;;;;;;16.85;5.47;;;;;;;-5.81;100.00;99105.62;4380008;32;20110;-74
2022/01/07 03:11:31;;;;;;;20.80;4.75;;;;;;;-6.09;100.00;99056.59;4371110;32;20392;-75
2022/01/07 03:13:57;;;;;;;15.95;5.80;;;;;;;-5.88;100.00;99106.19;4355706;32;20015;-76
2022/01/07 03:16:24;;;;;;;20.12;5.90;;;;;;;-5.91;100.00;99109.09;4383700;32;20031;-75
2022/01/07 03:18:50;;;;;;;18.17;6.15;;;;;;;-6.48;100.00;99009.50;4372331;32;20039;-74
2022/01/07 03:21:17;;;;;;;17.20;5.15;;;;;;;-5.98;100.00;99109.81;4384614;32;20061;-75
2022/01/07 03:23:45;;;;;;;20.55;5.50;;;;;;;-6.29;100.00;99061.03;4386222;32;20042;-75
2022/01/07 03:26:12;;;;;;;16.30;5.60;;;;;;;-5.98;100.00;99105.44;4384619;32;20057;-76
2022/01/07 03:28:39;;;;;;;15.82;5.80;;;;;;;-6.02;100.00;99099.63;4384767;32;20031;-75
2022/01/07 03:31:06;;;;;;;17.85;5.75;;;;;;;-6.08;100.00;99091.50;4385928;32;20444;-75
2022/01/07 03:33:33;;;;;;;24.85;5.85;;;;;;;-6.31;100.00;99057.75;4385216;32;20439;-75
2022/01/07 03:35:59;;;;;;;25.33;5.55;;;;;;;-6.29;100.00;99055.81;4385611;32;20397;-74
2022/01/07 03:38:26;;;;;;;14.32;5.30;;;;;;;-6.33;100.00;99049.22;4377422;32;20043;-77
2022/01/07 03:40:53;;;;;;;14.30;5.03;;;;;;;-6.06;100.00;99098.25;4368783;32;20088;-75
2022/01/07 03:43:19;;;;;;;21.45;5.25;;;;;;;-6.08;100.00;99104.59;4383850;32;20466;-75
2022/01/07 03:45:46;;;;;;;14.30;5.45;;;;;;;-6.03;100.00;99103.22;4385746;32;20081;-75
2022/01/07 03:48:12;;;;;;;20.25;6.80;;;;;;;-6.06;100.00;99107.94;4383958;32;20039;-75
2022/01/07 03:50:45;;;;;;;15.10;4.82;;;;;;;-6.12;100.00;99093.59;4383799;32;20078;-74
2022/01/07 03:53:12;;;;;;;15.60;6.05;;;;;;;-6.12;100.00;99084.91;4385727;32;20048;-75
2022/01/07 03:55:38;;;;;;;27.35;5.40;;;;;;;-6.07;100.00;99106.28;4385539;32;20031;-74
2022/01/07 03:58:05;;;;;;;17.67;4.85;;;;;;;-6.10;100.00;99098.69;4385734;32;20075;-74
2022/01/07 04:00:35;;;;;;;10.50;3.90;;;;;;;-6.03;100.00;99115.47;4385077;32;20433;-75
2022/01/07 04:03:08;;;;;;;22.05;5.10;;;;;;;-6.00;100.00;99096.84;4370348;32;20036;-75
2022/01/07 04:05:34;;;;;;;22.95;5.28;;;;;;;-6.19;100.00;99070.69;4384993;32;20034;-75
2022/01/07 04:08:08;;;;;;;17.98;4.85;;;;;;;-6.41;100.00;99036.00;4383820;32;20035;-76
2022/01/07 04:10:36;;;;;;;20.58;5.62;;;;;;;-5.93;100.00;99118.91;4384115;32;20112;-75
2022/01/07 04:13:03;;;;;;;9.00;4.12;;;;;;;-5.89;100.00;99115.03;4385452;32;20446;-75
2022/01/07 04:15:30;;;;;;;23.85;5.37;;;;;;;-5.88;100.00;99116.66;4385140;32;20057;-74
2022/01/07 04:17:57;;;;;;;24.15;5.22;;;;;;;-5.83;100.00;99118.88;4382031;32;20061;-76
2022/01/07 04:20:27;;;;;;;20.42;5.18;;;;;;;-5.87;100.00;99102.59;4383011;32;20039;-75
2022/01/07 04:22:54;;;;;;;17.73;5.35;;;;;;;-5.82;100.00;99114.44;4385274;32;20032;-75
2022/01/07 04:25:22;;;;;;;22.67;5.85;;;;;;;-6.07;100.00;99059.06;4385048;32;20047;-75
2022/01/07 04:27:54;;;;;;;15.05;6.12;;;;;;;-6.06;100.00;99051.06;4376165;32;20107;-75
2022/01/07 04:30:23;;;;;;;23.05;5.43;;;;;;;-6.11;100.00;99047.22;4368187;32;20152;-76
2022/01/07 04:32:52;;;;;;;12.85;4.40;;;;;;;-6.12;100.00;99046.41;4381517;32;20069;-75
2022/01/07 04:35:19;;;;;;;16.92;5.00;;;;;;;-5.88;100.00;99068.66;4385161;32;20048;-76
2022/01/07 04:37:46;;;;;;;19.17;5.50;;;;;;;-5.86;100.00;99077.19;4383955;32;20112;-76
2022/01/07 04:40:14;;;;;;;11.75;4.57;;;;;;;-5.94;100.00;99045.63;4384604;32;20443;-75
2022/01/07 04:42:41;;;;;;;21.85;4.70;;;;;;;-5.76;100.00;99082.41;4384063;32;20035;-75
2022/01/07 04:45:10;;;;;;;13.38;4.43;;;;;;;-5.81;100.00;99069.72;4385249;32;20069;-75
2022/01/07 04:47:37;;;;;;;15.68;4.40;;;;;;;-5.68;100.00;99077.25;4382388;32;20047;-77
2022/01/07 04:50:06;;;;;;;21.05;6.03;;;;;;;-5.93;100.00;99039.41;4382784;32;20084;-75
2022/01/07 04:52:33;;;;;;;13.80;4.93;;;;;;;-5.68;100.00;99093.00;4385178;32;20047;-75
2022/01/07 04:55:00;;;;;;;15.52;5.15;;;;;;;-5.71;100.00;99074.91;4385333;32;20043;-74
2022/01/07 04:57:27;;;;;;;16.02;5.85;;;;;;;-5.91;100.00;99045.34;4382236;32;20053;-76
2022/01/07 04:59:53;;;;;;;14.38;4.90;;;;;;;-5.98;100.00;99026.75;4384864;32;20047;-74
2022/01/07 05:02:20;;;;;;;17.48;5.20;;;;;;;-5.90;100.00;99029.47;4384228;32;20404;-74
2022/01/07 05:04:47;;;;;;;20.83;4.97;;;;;;;-5.65;100.00;99061.22;4385140;32;20039;-74
2022/01/07 05:07:14;;;;;;;11.43;4.78;;;;;;;-5.59;100.00;99081.66;4384599;32;20035;-74
2022/01/07 05:09:41;;;;;;;23.67;5.97;;;;;;;-5.54;100.00;99076.78;4368064;32;20039;-76
2022/01/07 05:12:07;;;;;;;13.00;4.40;;;;;;;-5.51;100.00;99087.00;4371073;32;20948;-74
2022/01/07 05:14:34;;;;;;;9.45;4.28;;;;;;;-5.51;100.00;99084.38;4384804;32;20077;-75
2022/01/07 05:17:01;;;;;;;15.23;4.47;;;;;;;-5.78;100.00;99024.84;4372864;32;20046;-74
2022/01/07 05:19:27;;;;;;;18.23;5.95;;;;;;;-5.55;100.00;99053.31;4387776;32;20331;-74
2022/01/07 05:21:53;;;;;;;15.07;4.90;;;;;;;-5.66;100.00;99020.25;4383822;32;20069;-76
2022/01/07 05:24:20;;;;;;;15.32;5.55;;;;;;;-5.38;100.00;99067.47;4386946;32;20063;-73
2022/01/07 05:26:47;;;;;;;14.15;6.55;;;;;;;-5.41;100.00;99062.50;4387405;32;20211;-74
2022/01/07 05:29:20;;;;;;;17.67;6.72;;;;;;;-5.69;100.00;99033.66;4387812;32;20069;-73
2022/01/07 05:31:46;;;;;;;22.08;6.40;;;;;;;-5.67;100.00;99014.16;4382392;32;20085;-76
2022/01/07 05:34:13;;;;;;;13.15;5.78;;;;;;;-5.37;100.00;99061.25;4387729;32;20054;-75
2022/01/07 05:36:39;;;;;;;15.52;5.70;;;;;;;-5.51;100.00;99045.00;4387986;32;20039;-75
2022/01/07 05:39:13;;;;;;;22.35;5.18;;;;;;;-5.55;100.00;99042.81;4381552;32;20137;-74
2022/01/07 05:41:39;;;;;;;14.55;5.80;;;;;;;-5.40;100.00;99066.78;4387195;32;20334;-76
2022/01/07 05:44:06;;;;;;;18.37;5.47;;;;;;;-5.74;100.00;99018.34;4385987;32;20462;-77
2022/01/07 05:46:33;;;;;;;15.82;5.62;;;;;;;-5.39;100.00;99073.69;4386393;32;20062;-74
2022/01/07 05:48:59;;;;;;;20.67;5.95;;;;;;;-5.44;100.00;99062.78;4381111;32;20044;-74
2022/01/07 05:51:31;;;;;;;19.00;7.18;;;;;;;-5.66;100.00;99025.50;4380635;32;20073;-75
2022/01/07 05:53:59;;;;;;;17.75;5.22;;;;;;;-5.38;100.00;99070.91;4388090;32;20051;-76
2022/01/07 05:56:28;;;;;;;13.23;4.78;;;;;;;-5.72;100.00;99011.16;4387493;32;20166;-75
2022/01/07 05:59:00;;;;;;;21.25;4.32;;;;;;;-5.34;100.00;99071.47;4387631;32;20056;-74
2022/01/07 06:01:37;;;;;;;18.90;6.05;;;;;;;-5.30;100.00;99064.94;4386755;32;20065;-75
2022/01/07 06:04:07;;;;;;;19.60;4.90;;;;;;;-5.30;100.00;99057.06;4386390;32;20055;-75
2022/01/07 06:06:34;;;;;;;9.65;4.50;;;;;;;-5.25;100.00;99060.06;4386259;32;20068;-74
2022/01/07 06:09:00;;;;;;;12.05;6.05;;;;;;;-5.31;100.00;99055.41;4379780;32;20074;-73
2022/01/07 06:11:28;;;;;;;17.80;6.25;;;;;;;-5.27;100.00;99062.00;4376237;32;20101;-73
2022/01/07 06:14:01;;;;;;;12.30;6.75;;;;;;;-5.23;100.00;99071.25;4387730;32;20043;-76
2022/01/07 06:16:28;;;;;;;8.70;5.72;;;;;;;-5.33;100.00;99070.47;4385162;32;20039;-74
2022/01/07 06:18:58;;;;;;;16.10;6.18;;;;;;;-5.35;100.00;99059.28;4385874;32;20466;-73
2022/01/07 06:21:30;;;;;;;14.18;6.00;;;;;;;-5.30;100.00;99067.56;4386713;32;20043;-74
2022/01/07 06:23:59;;;;;;;15.35;4.22;;;;;;;-5.30;100.00;99067.56;4386994;32;20069;-74
2022/01/07 06:26:31;;;;;;;18.80;5.10;;;;;;;-5.60;100.00;99027.53;4384656;32;20047;-73
2022/01/07 06:28:58;;;;;;;23.73;6.15;;;;;;;-5.33;100.00;99073.09;4388105;32;20066;-74
2022/01/07 06:31:24;;;;;;;18.10;5.95;;;;;;;-5.34;100.00;99076.72;4389276;32;20430;-73
2022/01/07 06:33:51;;;;;;;13.62;5.70;;;;;;;-5.59;100.00;99047.53;4387121;32;20043;-73
2022/01/07 06:36:18;;;;;;;15.10;6.15;;;;;;;-5.61;100.00;99033.75;4384382;32;20433;-74
2022/01/07 06:38:44;;;;;;;14.48;5.28;;;;;;;-5.66;100.00;99025.50;4386676;32;20398;-73
2022/01/07 06:41:14;;;;;;;18.77;6.15;;;;;;;-5.30;100.00;99078.06;4371636;32;20406;-73
2022/01/07 06:43:45;;;;;;;14.55;5.28;;;;;;;-5.36;100.00;99062.87;4373248;32;20077;-73
2022/01/07 06:46:13;;;;;;;14.55;4.28;;;;;;;-5.24;100.00;99080.09;4384775;32;20053;-76
2022/01/07 06:48:41;;;;;;;11.98;4.43;;;;;;;-5.17;100.00;99083.78;4372158;32;20043;-72
2022/01/07 06:51:09;;;;;;;18.62;5.05;;;;;;;-5.09;100.00;99079.59;4386910;32;20414;-73
2022/01/07 06:53:44;;;;;;;16.17;6.07;;;;;;;-5.05;100.00;99081.78;4386027;32;20097;-73
2022/01/07 06:56:13;;;;;;;16.37;5.45;;;;;;;-5.34;100.00;99039.97;4384831;32;20454;-74
2022/01/07 06:58:39;;;;;;;20.55;6.05;;;;;;;-5.16;100.00;99074.94;4383137;32;20047;-73
2022/01/07 07:01:06;;;;;;;19.52;5.62;;;;;;;-5.04;100.00;99088.69;4375231;32;20326;-73
2022/01/07 07:03:33;;;;;;;15.95;5.32;;;;;;;-5.26;100.00;99047.94;4386005;32;20439;-73
2022/01/07 07:05:59;;;;;;;9.27;3.95;;;;;;;-5.16;100.00;99064.44;4384837;32;20169;-75
2022/01/07 07:08:26;;;;;;;12.68;6.28;;;;;;;-4.90;100.00;99095.22;4385875;32;20550;-73
2022/01/07 07:10:52;;;;;;;14.63;4.72;;;;;;;-5.11;100.00;99051.69;4385578;32;20088;-73
2022/01/07 07:13:19;;;;;;;34.42;10.45;;;;;;;-4.96;100.00;99059.06;4386206;32;20365;-75
2022/01/07 07:15:45;;;;;;;17.30;5.50;;;;;;;-4.77;100.00;99087.81;4385703;32;20082;-74
2022/01/07 07:18:14;;;;;;;18.70;5.45;;;;;;;-4.75;100.00;99093.72;4371901;32;20061;-75
2022/01/07 07:20:41;;;;;;;12.25;4.93;;;;;;;-4.77;100.00;99090.44;4383613;32;20043;-73
2022/01/07 07:23:07;;;;;;;20.40;6.30;;;;;;;-4.89;100.00;99070.63;4386009;32;20054;-73
2022/01/07 07:25:34;;;;;;;13.02;5.30;;;;;;;-5.03;100.00;99076.38;4385739;32;20064;-73
2022/01/07 07:28:01;;;;;;;19.37;7.47;;;;;;;-4.81;100.00;99110.09;4385697;32;20043;-73
2022/01/07 07:30:34;;;;;;;17.25;6.32;;;;;;;-4.71;100.00;99110.00;4372122;32;20053;-73
2022/01/07 07:33:28;;;;;;;10.75;4.40;;;;;;;-4.71;100.00;99115.28;4371685;32;20067;-73
2022/01/07 07:38:36;;;;;;;12.77;5.72;;;;;;;-4.66;100.00;99113.03;4384822;32;21031;-74
2022/01/07 07:41:03;;;;;;;11.48;5.15;;;;;;;-4.70;100.00;99095.09;4369867;32;20051;-73
2022/01/07 07:43:30;;;;;;;28.55;5.30;;;;;;;-4.67;100.00;99093.00;4371235;32;20059;-73
2022/01/07 07:45:56;;;;;;;10.32;4.12;;;;;;;-4.84;100.00;99052.59;4384940;32;20050;-73
2022/01/07 07:48:23;;;;;;;28.50;7.30;;;;;;;-4.62;100.00;99092.53;4376542;32;20043;-73
2022/01/07 07:50:49;;;;;;;17.30;6.25;;;;;;;-4.52;100.00;99093.28;4381631;32;20400;-74
2022/01/07 07:53:18;;;;;;;17.20;5.40;;;;;;;-4.62;100.00;99082.03;4385786;32;20362;-75
2022/01/07 07:55:53;;;;;;;18.55;6.37;;;;;;;-4.49;100.00;99079.84;4383346;32;20068;-73
2022/01/07 07:58:21;;;;;;;7.00;3.55;;;;;;;-4.70;100.00;99039.94;4382648;32;20032;-76
2022/01/07 08:00:49;;;;;;;10.88;4.90;;;;;;;-4.48;100.00;99065.72;4385143;32;20055;-74
2022/01/07 08:03:17;;;;;;;14.87;5.37;;;;;;;-4.31;100.00;99079.81;4384476;32;20096;-74
2022/01/07 08:05:44;;;;;;;14.90;5.65;;;;;;;-4.39;100.00;99072.69;4385282;32;20073;-74
2022/01/07 08:08:10;;;;;;;12.45;4.55;;;;;;;-4.34;100.00;99092.44;4384762;32;20081;-73
2022/01/07 08:10:45;;;;;;;15.88;5.75;;;;;;;-4.36;100.00;99097.03;4375481;32;20043;-73
2022/01/07 08:18:25;;;;;;;22.75;7.47;;;;;;;-4.32;100.00;99098.34;4383873;32;20055;-73
2022/01/07 08:20:52;;;;;;;12.20;4.90;;;;;;;-4.27;100.00;99096.13;4384261;32;20079;-73
2022/01/07 08:23:19;;;;;;;13.38;5.00;;;;;;;-4.36;100.00;99089.13;4385449;32;20042;-73
2022/01/07 08:25:46;;;;;;;10.68;4.28;;;;;;;-4.32;100.00;99099.19;4384874;32;20484;-73
2022/01/07 08:28:13;;;;;;;18.12;4.85;;;;;;;-4.25;100.00;99104.66;4383642;32;20157;-72
2022/01/07 08:36:14;;;;;;;11.15;5.20;;;;;;;-4.18;100.00;99087.28;4381748;32;20059;-74
2022/01/07 08:38:42;;;;;;;18.98;6.20;;;;;;;-4.16;100.00;99087.97;4376127;32;20349;-74
2022/01/07 08:41:08;;;;;;;28.20;6.57;;;;;;;-4.14;100.00;99086.00;4377084;32;20394;-74
2022/01/07 08:43:41;;;;;;;13.40;4.10;;;;;;;-4.20;100.00;99074.31;4376183;32;20081;-75
2022/01/07 08:46:09;;;;;;;20.00;5.25;;;;;;;-4.22;100.00;99075.44;4365206;32;20047;-74
2022/01/07 08:48:37;;;;;;;14.15;4.72;;;;;;;-4.09;100.00;99078.47;4363699;32;20900;-74
2022/01/07 08:51:11;;;;;;;15.63;5.07;;;;;;;-4.32;100.00;99030.00;4378621;32;20073;-74
2022/01/07 08:53:38;;;;;;;18.45;4.10;;;;;;;-4.26;100.00;99024.13;4381577;32;20043;-74
2022/01/07 08:56:06;;;;;;;9.18;3.83;;;;;;;-3.98;100.00;99073.97;4379585;32;20085;-76
2022/01/07 08:58:33;;;;;;;8.60;3.53;;;;;;;-4.16;100.00;99035.38;4380970;32;20354;-74
2022/01/07 09:01:00;;;;;;;16.35;4.70;;;;;;;-3.85;100.00;99079.63;4382878;32;20035;-74
2022/01/07 09:03:27;;;;;;;16.67;5.18;;;;;;;-3.75;100.00;99077.72;4379367;32;20040;-74
2022/01/07 09:05:54;;;;;;;11.07;3.45;;;;;;;-3.96;100.00;99035.16;4369981;32;20060;-77
2022/01/07 09:08:22;;;;;;;10.07;4.72;;;;;;;-3.69;100.00;99079.69;4373819;32;20039;-75
2022/01/07 09:10:48;;;;;;;21.25;5.22;;;;;;;-3.55;100.00;99074.84;4386337;32;20395;-75
2022/01/07 09:13:16;;;;;;;16.00;4.57;;;;;;;-3.69;100.00;99037.59;4386889;32;20445;-75
2022/01/07 09:15:42;;;;;;;11.63;4.32;;;;;;;-3.49;100.00;99069.78;4387375;32;20068;-78
2022/01/07 09:18:15;;;;;;;11.95;4.22;;;;;;;-3.41;100.00;99079.50;4373044;32;20051;-76
2022/01/07 09:20:44;;;;;;;13.40;4.43;;;;;;;-3.45;100.00;99069.47;4385607;32;20085;-75
2022/01/07 09:23:11;;;;;;;8.52;3.72;;;;;;;-3.57;100.00;99022.38;4371764;32;20109;-76
2022/01/07 09:25:38;;;;;;;11.68;3.72;;;;;;;-3.34;100.00;99084.97;4377494;32;20100;-77
2022/01/07 09:28:06;;;;;;;12.95;3.83;;;;;;;-3.26;100.00;99086.81;4373034;32;20051;-73
2022/01/07 09:30:34;;;;;;;10.40;3.75;;;;;;;-3.15;100.00;99083.88;4387560;32;20050;-73
2022/01/07 09:33:01;;;;;;;10.95;4.43;;;;;;;-3.07;100.00;99080.47;4357977;32;20093;-73
2022/01/07 09:35:28;;;;;;;13.60;3.70;;;;;;;-3.17;100.00;99051.62;4380881;32;20035;-75
2022/01/07 09:37:54;;;;;;;15.50;4.62;;;;;;;-3.00;100.00;99084.94;4369464;32;20051;-71
2022/01/07 09:40:22;;;;;;;17.85;5.10;;;;;;;-3.15;100.00;99045.19;4386086;32;20039;-72
2022/01/07 09:42:58;;;;;;;12.10;3.80;;;;;;;-3.19;100.00;99041.25;4373306;32;20039;-73
2022/01/07 09:45:26;;;;;;;20.83;4.75;;;;;;;-2.78;100.00;99082.66;4370877;32;20031;-74
2022/01/07 09:47:55;;;;;;;12.30;4.75;;;;;;;-2.80;100.00;99079.34;4381515;32;20961;-73
2022/01/07 09:50:22;;;;;;;10.35;4.47;;;;;;;-2.71;100.00;99077.53;4376819;32;20105;-72
2022/01/07 09:52:49;;;;;;;11.57;4.78;;;;;;;-2.74;100.00;99073.44;4375427;32;20121;-72
2022/01/07 09:55:16;;;;;;;12.43;3.30;;;;;;;-2.68;100.00;99069.31;4372325;32;20474;-74
2022/01/07 09:57:42;;;;;;;17.83;4.47;;;;;;;-2.59;100.00;99063.87;4371558;32;20455;-73
2022/01/07 10:00:11;;;;;;;10.77;4.07;;;;;;;-2.45;100.00;99064.22;4383626;32;20136;-72
2022/01/07 10:02:57;;;;;;;17.00;4.93;;;;;;;-2.49;100.00;99062.91;4376389;32;20048;-72
2022/01/07 10:05:24;;;;;;;16.40;4.35;;;;;;;-2.41;100.00;99063.75;4371683;32;20031;-75
2022/01/07 10:08:24;;;;;;;5.78;3.00;;;;;;;-2.33;100.00;99055.00;4373067;32;20069;-74
2022/01/07 10:11:11;;;;;;;28.77;4.10;;;;;;;-2.14;100.00;99058.25;4384440;32;20059;-75
2022/01/07 10:13:38;;;;;;;16.45;5.28;;;;;;;-2.07;100.00;99054.78;4385039;32;20060;-72
2022/01/07 10:16:22;;;;;;;14.35;5.03;;;;;;;-2.03;100.00;99055.28;4383924;32;20058;-75
2022/01/07 10:18:50;;;;;;;10.93;4.10;;;;;;;-2.15;100.00;98998.56;4382675;32;20077;-73
2022/01/07 10:21:18;;;;;;;11.75;4.10;;;;;;;-1.90;100.00;99047.69;4376465;32;20112;-73
2022/01/07 10:23:45;;;;;;;9.10;3.87;;;;;;;-1.93;100.00;99041.91;4384322;32;20100;-73
2022/01/07 10:26:19;;;;;;;9.23;3.85;;;;;;;-2.08;100.00;99004.84;4371119;32;20132;-74
2022/01/07 10:28:47;;;;;;;15.82;3.70;;;;;;;-1.85;100.00;99026.88;4376784;32;20081;-73
2022/01/07 10:31:23;;;;;;;11.45;4.12;;;;;;;-1.90;100.00;98997.53;4375705;32;20742;-74
2022/01/07 10:33:50;;;;;;;8.00;3.15;;;;;;;-1.71;100.00;99040.34;4377261;32;20176;-74
2022/01/07 10:36:20;;;;;;;14.75;4.22;;;;;;;-1.75;100.00;99023.22;4379071;32;20149;-73
2022/01/07 10:38:53;;;;;;;10.00;3.90;;;;;;;-1.81;100.00;99032.63;4359878;32;20170;-73
2022/01/07 10:41:21;;;;;;;14.25;3.45;;;;;;;-1.66;100.00;99030.94;4386364;32;20061;-72
2022/01/07 10:43:50;;;;;;;13.05;4.22;;;;;;;-1.64;100.00;99009.66;4383918;32;20125;-72
2022/01/07 10:46:19;;;;;;;12.65;3.75;;;;;;;-1.45;100.00;99024.25;4371587;32;20086;-72
2022/01/07 10:49:03;;;;;;;14.90;3.45;;;;;;;-1.57;100.00;99023.78;4369711;32;20105;-72
2022/01/07 10:51:40;;;;;;;11.10;3.78;;;;;;;-1.69;100.00;98978.47;4370315;32;20467;-72
2022/01/07 10:54:10;;;;;;;8.60;3.92;;;;;;;-1.41;100.00;99014.16;4369283;32;20062;-72
2022/01/07 10:56:39;;;;;;;5.12;2.85;;;;;;;-1.76;100.00;98974.06;4369366;32;20114;-72
2022/01/07 10:59:17;;;;;;;5.50;2.55;;;;;;;-1.51;100.00;99017.03;4371067;32;20448;-72
2022/01/07 11:01:45;;;;;;;17.85;4.43;;;;;;;-1.47;100.00;99003.31;4371493;32;20051;-71
2022/01/07 11:04:17;;;;;;;11.32;4.50;;;;;;;-1.33;100.00;99019.41;4354241;32;20073;-72
2022/01/07 11:06:46;;;;;;;9.75;4.05;;;;;;;-1.32;100.00;99021.06;4371188;32;20475;-72
2022/01/07 11:09:14;;;;;;;9.80;3.78;;;;;;;-1.53;100.00;98960.88;4370818;32;20411;-72
2022/01/07 11:11:53;;;;;;;14.57;4.65;;;;;;;-1.38;100.00;98968.91;4370841;32;20174;-72
2022/01/07 11:14:24;;;;;;;13.57;4.95;;;;;;;-1.30;100.00;98953.81;4370589;32;20077;-72
2022/01/07 11:16:52;;;;;;;8.77;3.87;;;;;;;-0.86;100.00;99010.53;4383060;32;20048;-71
2022/01/07 11:19:22;;;;;;;10.45;3.80;;;;;;;-0.98;100.00;99006.66;4386697;32;20059;-71
2022/01/07 11:21:52;;;;;;;14.77;4.05;;;;;;;-0.86;100.00;98994.69;4382286;32;20043;-72
2022/01/07 11:24:32;;;;;;;10.05;3.70;;;;;;;-0.45;100.00;99002.25;4385540;32;20314;-71
2022/01/07 11:27:09;;;;;;;15.95;4.80;;;;;;;-0.62;100.00;98950.53;4365267;32;20065;-71
2022/01/07 11:29:49;;;;;;;14.77;4.28;;;;;;;-0.04;100.00;99004.50;4377678;32;20065;-71
2022/01/07 11:32:25;;;;;;;13.95;6.07;;;;;;;0.21;100.00;98998.97;4385848;32;20090;-71
2022/01/07 11:34:56;;;;;;;18.20;5.95;;;;;;;0.39;100.00;99000.41;4376966;32;20081;-71
2022/01/07 11:37:40;;;;;;;15.98;5.10;;;;;;;0.43;100.00;98999.84;4372219;32;20408;-71